createdAt,value
2024-04-13T00:01:10.388Z,5.80
2024-04-13T00:04:08.586Z,5.30
2024-04-13T00:06:43.209Z,6.70
2024-04-13T00:09:18.223Z,8.40
2024-04-13T00:11:50.602Z,7.40
2024-04-13T00:14:23.844Z,8.70
2024-04-13T00:16:58.539Z,6.80
2024-04-13T00:19:32.402Z,7.40
2024-04-13T00:22:09.592Z,6.80
2024-04-13T00:24:45.124Z,5.60
2024-04-13T00:27:21.197Z,6.30
2024-04-13T00:29:56.262Z,7.20
2024-04-13T00:32:28.591Z,6.20
2024-04-13T00:35:01.040Z,5.70
2024-04-13T00:37:35.531Z,5.10
2024-04-13T00:40:10.744Z,5.10
2024-04-13T00:42:46.740Z,5.80
2024-04-13T00:45:19.509Z,7.90
2024-04-13T00:47:53.896Z,5.90
2024-04-13T00:50:30.074Z,6.50
2024-04-13T00:53:05.014Z,6.10
2024-04-13T00:55:40.833Z,7.70
2024-04-13T00:58:15.357Z,10.00
2024-04-13T01:00:48.828Z,10.30
2024-04-13T01:03:23.654Z,10.40
2024-04-13T01:08:30.164Z,6.70
2024-04-13T01:11:05.288Z,7.50
2024-04-13T01:13:40.023Z,7.50
2024-04-13T01:16:16.196Z,6.30
2024-04-13T01:18:48.975Z,6.40
2024-04-13T01:21:22.452Z,7.70
2024-04-13T01:24:00.566Z,4.90
2024-04-13T01:26:39.504Z,6.40
2024-04-13T01:29:15.355Z,5.80
2024-04-13T01:31:48.300Z,6.20
2024-04-13T01:34:26.137Z,6.10
2024-04-13T01:36:59.956Z,6.50
2024-04-13T01:39:33.557Z,5.10
2024-04-13T01:42:07.611Z,8.50
2024-04-13T01:44:39.887Z,8.10
2024-04-13T01:47:13.101Z,9.50
2024-04-13T01:49:45.951Z,10.30
2024-04-13T01:52:18.264Z,11.10
2024-04-13T01:54:50.174Z,8.00
2024-04-13T01:57:25.579Z,8.90
2024-04-13T01:59:58.113Z,10.30
2024-04-13T02:02:30.816Z,7.10
2024-04-13T02:05:04.740Z,7.50
2024-04-13T02:07:40.045Z,6.50
2024-04-13T02:10:16.301Z,5.80
2024-04-13T02:12:48.279Z,5.50
2024-04-13T02:15:20.569Z,7.50
2024-04-13T02:17:57.696Z,5.70
2024-04-13T02:20:30.165Z,7.90
2024-04-13T02:23:06.136Z,4.80
2024-04-13T02:25:38.193Z,6.10
2024-04-13T02:28:10.719Z,6.00
2024-04-13T02:30:44.117Z,5.50
2024-04-13T02:33:18.250Z,8.50
2024-04-13T02:36:01.417Z,7.30
2024-04-13T02:38:35.109Z,7.80
2024-04-13T02:41:13.754Z,11.70
2024-04-13T02:43:46.398Z,15.90
2024-04-13T02:46:18.776Z,18.70
2024-04-13T02:48:51.132Z,13.10
2024-04-13T02:51:26.785Z,9.50
2024-04-13T02:54:00.227Z,9.40
2024-04-13T02:56:35.994Z,7.10
2024-04-13T02:59:08.382Z,7.50
2024-04-13T03:01:41.481Z,8.70
2024-04-13T03:04:19.265Z,6.60
2024-04-13T03:06:55.316Z,6.70
2024-04-13T03:09:30.686Z,5.80
2024-04-13T03:12:03.935Z,5.80
2024-04-13T03:14:36.391Z,3.80
2024-04-13T03:17:08.895Z,5.00
2024-04-13T03:19:41.628Z,6.20
2024-04-13T03:22:19.433Z,7.60
2024-04-13T03:24:52.406Z,6.20
2024-04-13T03:27:25.220Z,7.20
2024-04-13T03:29:58.066Z,6.10
2024-04-13T03:32:30.234Z,6.50
2024-04-13T03:35:10.879Z,7.40
2024-04-13T03:37:45.174Z,5.10
2024-04-13T03:40:17.754Z,5.60
2024-04-13T03:42:49.979Z,8.50
2024-04-13T03:45:24.476Z,5.00
2024-04-13T03:47:57.406Z,5.10
2024-04-13T03:50:29.907Z,5.50
2024-04-13T03:53:02.924Z,6.80
2024-04-13T03:55:35.799Z,6.30
2024-04-13T03:58:08.015Z,5.50
2024-04-13T04:00:40.117Z,5.30
2024-04-13T04:03:15.909Z,6.70
2024-04-13T04:05:52.194Z,5.10
2024-04-13T04:08:24.822Z,5.30
2024-04-13T04:10:58.039Z,5.80
2024-04-13T04:13:30.877Z,6.20
2024-04-13T04:16:04.463Z,5.50
2024-04-13T04:18:39.984Z,5.40
2024-04-13T04:21:13.701Z,5.00
2024-04-13T04:23:46.685Z,6.50
2024-04-13T04:26:18.986Z,6.20
2024-04-13T04:28:53.343Z,6.90
2024-04-13T04:31:28.174Z,6.70
2024-04-13T04:34:02.290Z,5.60
2024-04-13T04:36:40.788Z,6.50
2024-04-13T04:39:19.048Z,4.80
2024-04-13T04:41:53.298Z,7.20
2024-04-13T04:44:29.639Z,6.40
2024-04-13T04:47:02.485Z,7.60
2024-04-13T04:49:36.767Z,5.20
2024-04-13T04:52:16.711Z,5.20
2024-04-13T04:54:48.680Z,5.80
2024-04-13T04:57:21.833Z,4.80
2024-04-13T04:59:58.353Z,7.60
2024-04-13T05:02:30.654Z,6.40
2024-04-13T05:05:10.019Z,5.70
2024-04-13T05:07:44.653Z,5.80
2024-04-13T05:10:18.623Z,6.00
2024-04-13T05:12:50.824Z,5.20
2024-04-13T05:15:26.103Z,6.00
2024-04-13T05:17:58.329Z,5.90
2024-04-13T05:20:30.763Z,5.80
2024-04-13T05:23:06.452Z,5.30
2024-04-13T05:25:38.367Z,5.10
2024-04-13T05:28:10.671Z,6.40
2024-04-13T05:30:58.652Z,5.90
2024-04-13T05:33:32.472Z,6.10
2024-04-13T05:36:07.776Z,5.60
2024-04-13T05:38:42.227Z,5.70
2024-04-13T05:41:14.971Z,5.30
2024-04-13T05:43:47.946Z,6.50
2024-04-13T05:46:21.745Z,8.20
2024-04-13T05:48:55.998Z,6.70
2024-04-13T05:51:28.448Z,6.10
2024-04-13T05:54:00.965Z,7.20
2024-04-13T05:56:36.553Z,6.20
2024-04-13T05:59:09.218Z,4.70
2024-04-13T06:01:43.777Z,4.80
2024-04-13T06:04:16.988Z,7.40
2024-04-13T06:06:52.444Z,6.80
2024-04-13T06:11:58.105Z,6.00
2024-04-13T06:14:32.365Z,7.80
2024-04-13T06:17:04.597Z,7.20
2024-04-13T06:19:38.017Z,6.00
2024-04-13T06:22:13.760Z,6.90
2024-04-13T06:24:46.310Z,6.90
2024-04-13T06:27:18.477Z,5.80
2024-04-13T06:29:55.496Z,4.90
2024-04-13T06:32:28.218Z,5.80
2024-04-13T06:35:00.807Z,6.40
2024-04-13T06:37:35.793Z,6.50
2024-04-13T06:40:17.505Z,4.80
2024-04-13T06:42:49.731Z,5.60
2024-04-13T06:45:22.551Z,6.40
2024-04-13T06:47:54.971Z,5.60
2024-04-13T06:50:28.113Z,5.40
2024-04-13T06:53:00.161Z,5.30
2024-04-13T06:55:36.049Z,5.70
2024-04-13T06:58:08.896Z,4.30
2024-04-13T07:00:42.317Z,5.00
2024-04-13T07:03:17.299Z,5.30
2024-04-13T07:05:55.877Z,5.20
2024-04-13T07:08:29.546Z,5.70
2024-04-13T07:11:04.759Z,6.60
2024-04-13T07:13:39.574Z,5.60
2024-04-13T07:16:13.422Z,5.50
2024-04-13T07:18:48.004Z,6.50
2024-04-13T07:21:21.071Z,6.20
2024-04-13T07:23:54.657Z,5.60
2024-04-13T07:26:27.079Z,5.60
2024-04-13T07:28:58.784Z,6.10
2024-04-13T07:31:31.048Z,5.90
2024-04-13T07:34:05.245Z,5.60
2024-04-13T07:36:38.144Z,5.10
2024-04-13T07:39:14.403Z,5.70
2024-04-13T07:41:47.114Z,5.40
2024-04-13T07:44:19.161Z,5.00
2024-04-13T07:46:52.184Z,4.90
2024-04-13T07:49:28.029Z,5.50
2024-04-13T07:52:03.284Z,6.40
2024-04-13T07:54:37.721Z,5.20
2024-04-13T07:57:10.194Z,5.40
2024-04-13T07:59:44.822Z,6.60
2024-04-13T08:02:17.942Z,4.80
2024-04-13T08:04:54.188Z,5.30
2024-04-13T08:07:26.780Z,6.50
2024-04-13T08:09:58.638Z,4.70
2024-04-13T08:12:33.310Z,4.20
2024-04-13T08:15:09.754Z,4.20
2024-04-13T08:17:42.352Z,5.30
2024-04-13T08:20:17.649Z,5.80
2024-04-13T08:22:50.271Z,3.80
2024-04-13T08:25:25.382Z,5.70
2024-04-13T08:27:58.000Z,4.60
2024-04-13T08:30:30.804Z,4.60
2024-04-13T08:33:05.991Z,5.00
2024-04-13T08:35:38.233Z,4.80
2024-04-13T08:38:14.334Z,5.10
2024-04-13T08:40:52.275Z,4.20
2024-04-13T08:43:26.707Z,5.20
2024-04-13T08:45:59.493Z,4.50
2024-04-13T08:48:32.458Z,4.80
2024-04-13T08:51:08.064Z,4.50
2024-04-13T08:53:45.466Z,3.50
2024-04-13T08:56:22.209Z,5.20
2024-04-13T08:58:56.255Z,4.30
2024-04-13T09:01:28.827Z,4.70
2024-04-13T09:04:02.435Z,4.70
2024-04-13T09:06:38.606Z,5.00
2024-04-13T09:09:13.124Z,5.10
2024-04-13T09:11:46.824Z,5.70
2024-04-13T09:14:18.847Z,5.40
2024-04-13T09:16:52.173Z,5.90
2024-04-13T09:19:25.357Z,4.20
2024-04-13T09:21:58.214Z,5.70
2024-04-13T09:24:40.845Z,6.00
2024-04-13T09:27:22.451Z,3.90
2024-04-13T09:29:55.295Z,5.10
2024-04-13T09:32:29.175Z,5.50
2024-04-13T09:35:15.556Z,4.40
2024-04-13T09:37:48.887Z,4.40
2024-04-13T09:40:23.549Z,4.20
2024-04-13T09:42:58.292Z,4.00
2024-04-13T09:45:34.784Z,6.20
2024-04-13T09:48:11.054Z,3.90
2024-04-13T09:50:46.637Z,3.80
2024-04-13T09:53:19.433Z,4.80
2024-04-13T09:55:52.473Z,4.90
2024-04-13T09:58:27.997Z,4.30
2024-04-13T10:01:03.524Z,5.80
2024-04-13T10:03:36.269Z,5.50
2024-04-13T10:06:16.520Z,4.60
2024-04-13T10:08:51.050Z,6.10
2024-04-13T10:11:28.324Z,4.50
2024-04-13T10:14:01.799Z,6.70
2024-04-13T10:16:36.350Z,5.20
2024-04-13T10:19:14.458Z,4.20
2024-04-13T10:21:52.082Z,5.30
2024-04-13T10:24:29.286Z,5.90
2024-04-13T10:27:10.366Z,4.90
2024-04-13T10:29:49.494Z,5.50
2024-04-13T10:32:26.443Z,6.60
2024-04-13T10:35:08.072Z,5.50
2024-04-13T10:37:40.482Z,6.10
2024-04-13T10:40:24.833Z,5.00
2024-04-13T10:43:07.597Z,5.20
2024-04-13T10:45:40.716Z,5.20
2024-04-13T10:48:17.211Z,6.00
2024-04-13T10:50:52.466Z,6.60
2024-04-13T10:53:27.468Z,4.30
2024-04-13T10:56:04.964Z,7.10
2024-04-13T10:58:42.931Z,7.00
2024-04-13T11:01:22.660Z,4.80
2024-04-13T11:04:08.331Z,5.90
2024-04-13T11:06:43.434Z,4.90
2024-04-13T11:09:16.654Z,6.20
2024-04-13T11:11:49.023Z,4.70
2024-04-13T11:14:23.527Z,4.30
2024-04-13T11:16:56.322Z,4.10
2024-04-13T11:19:28.744Z,5.70
2024-04-13T11:22:05.943Z,6.10
2024-04-13T11:24:38.883Z,4.80
2024-04-13T11:27:11.350Z,5.60
2024-04-13T11:29:45.559Z,5.70
2024-04-13T11:32:19.305Z,5.20
2024-04-13T11:34:55.403Z,5.50
2024-04-13T11:37:27.833Z,6.60
2024-04-13T11:40:00.253Z,5.90
2024-04-13T11:42:42.008Z,4.70
2024-04-13T11:45:18.964Z,5.80
2024-04-13T11:47:52.340Z,6.30
2024-04-13T11:50:25.094Z,6.50
2024-04-13T11:52:58.467Z,4.10
2024-04-13T11:55:39.215Z,4.20
2024-04-13T11:58:22.480Z,3.90
2024-04-13T12:00:56.235Z,4.70
2024-04-13T12:03:28.268Z,5.80
2024-04-13T12:06:02.095Z,5.00
2024-04-13T12:08:34.769Z,5.50
2024-04-13T12:11:08.631Z,7.00
2024-04-13T12:13:44.027Z,4.10
2024-04-13T12:16:18.843Z,5.00
2024-04-13T12:18:51.144Z,4.10
2024-04-13T12:21:27.372Z,6.20
2024-04-13T12:24:01.917Z,5.50
2024-04-13T12:26:37.162Z,4.70
2024-04-13T12:29:09.627Z,5.00
2024-04-13T12:31:46.577Z,5.20
2024-04-13T12:34:25.489Z,4.90
2024-04-13T12:36:58.350Z,4.30
2024-04-13T12:39:31.765Z,5.20
2024-04-13T12:42:09.393Z,6.60
2024-04-13T12:44:44.108Z,4.60
2024-04-13T12:47:18.359Z,4.50
2024-04-13T12:49:50.455Z,5.10
2024-04-13T12:52:27.357Z,4.10
2024-04-13T12:54:59.999Z,4.70
2024-04-13T12:57:33.675Z,4.50
2024-04-13T13:00:07.752Z,3.80
2024-04-13T13:02:40.837Z,6.50
2024-04-13T13:05:14.460Z,4.70
2024-04-13T13:07:46.524Z,4.10
2024-04-13T13:10:18.389Z,4.90
2024-04-13T13:12:50.495Z,4.40
2024-04-13T13:15:25.228Z,4.00
2024-04-13T13:18:00.621Z,4.10
2024-04-13T13:20:34.082Z,3.60
2024-04-13T13:23:08.520Z,3.50
2024-04-13T13:25:42.750Z,3.70
2024-04-13T13:28:15.549Z,3.30
2024-04-13T13:30:48.271Z,2.90
2024-04-13T13:33:21.423Z,4.40
2024-04-13T13:35:57.637Z,5.30
2024-04-13T13:38:30.047Z,5.10
2024-04-13T13:41:06.104Z,3.30
2024-04-13T13:43:38.580Z,3.50
2024-04-13T13:46:11.047Z,3.20
2024-04-13T13:48:45.677Z,4.60
2024-04-13T13:51:17.697Z,2.30
2024-04-13T13:53:49.722Z,3.40
2024-04-13T13:56:22.359Z,2.90
2024-04-13T13:58:55.941Z,3.10
2024-04-13T14:01:28.361Z,3.20
2024-04-13T14:04:02.409Z,2.30
2024-04-13T14:06:36.322Z,3.50
2024-04-13T14:09:08.793Z,3.90
2024-04-13T14:11:42.362Z,3.40
2024-04-13T14:14:18.967Z,2.50
2024-04-13T14:16:52.585Z,2.50
2024-04-13T14:19:25.055Z,2.40
2024-04-13T14:21:59.974Z,2.20
2024-04-13T14:24:36.741Z,4.00
2024-04-13T14:27:09.392Z,2.30
2024-04-13T14:29:42.219Z,3.30
2024-04-13T14:32:16.142Z,3.00
2024-04-13T14:34:48.785Z,2.60
2024-04-13T14:37:21.056Z,2.40
2024-04-13T14:39:55.226Z,3.60
2024-04-13T14:42:30.588Z,2.90
2024-04-13T14:45:07.351Z,3.40
2024-04-13T14:47:42.336Z,3.40
2024-04-13T14:50:15.140Z,3.80
2024-04-13T14:52:48.191Z,3.10
2024-04-13T14:55:24.170Z,2.20
2024-04-13T14:57:57.062Z,3.20
2024-04-13T15:00:29.220Z,2.00
2024-04-13T15:03:04.398Z,2.90
2024-04-13T15:05:37.846Z,2.70
2024-04-13T15:08:12.991Z,4.20
2024-04-13T15:10:50.178Z,1.80
2024-04-13T15:13:23.671Z,2.50
2024-04-13T15:15:57.311Z,2.90
2024-04-13T15:18:29.622Z,2.40
2024-04-13T15:21:02.556Z,4.50
2024-04-13T15:23:35.305Z,3.40
2024-04-13T15:26:10.271Z,2.30
2024-04-13T15:28:45.433Z,3.00
2024-04-13T15:31:18.721Z,2.20
2024-04-13T15:33:51.021Z,2.90
2024-04-13T15:36:25.217Z,3.10
2024-04-13T15:38:59.932Z,4.30
2024-04-13T15:41:32.652Z,2.00
2024-04-13T15:44:05.102Z,3.50
2024-04-13T15:46:38.724Z,2.80
2024-04-13T15:49:11.178Z,3.30
2024-04-13T15:51:45.056Z,4.70
2024-04-13T15:54:18.048Z,3.20
2024-04-13T15:56:50.217Z,3.50
2024-04-13T15:59:28.397Z,3.20
2024-04-13T16:02:10.133Z,4.00
2024-04-13T16:04:47.249Z,2.50
2024-04-13T16:07:19.700Z,2.80
2024-04-13T16:09:55.781Z,2.50
2024-04-13T16:12:28.713Z,3.50
2024-04-13T16:15:01.123Z,2.90
2024-04-13T16:17:37.920Z,3.10
2024-04-13T16:20:17.550Z,3.30
2024-04-13T16:22:53.588Z,3.60
2024-04-13T16:25:27.876Z,3.00
2024-04-13T16:28:02.357Z,5.60
2024-04-13T16:33:13.554Z,3.20
2024-04-13T16:35:47.036Z,4.50
2024-04-13T16:38:19.017Z,3.70
2024-04-13T16:40:54.773Z,2.20
2024-04-13T16:43:31.827Z,4.70
2024-04-13T16:46:04.919Z,4.50
2024-04-13T16:48:38.402Z,5.50
2024-04-13T16:51:10.719Z,3.50
2024-04-13T16:56:17.733Z,3.50
2024-04-13T16:58:50.041Z,3.40
2024-04-13T17:01:26.693Z,3.90
2024-04-13T17:03:59.025Z,4.20
2024-04-13T17:06:31.403Z,3.60
2024-04-13T17:09:05.659Z,4.10
2024-04-13T17:11:38.164Z,4.10
2024-04-13T17:14:10.292Z,4.90
2024-04-13T17:16:46.644Z,5.70
2024-04-13T17:19:18.819Z,4.70
2024-04-13T17:21:51.856Z,5.00
2024-04-13T17:24:26.607Z,5.30
2024-04-13T17:29:30.545Z,4.40
2024-04-13T17:32:06.173Z,4.10
2024-04-13T17:34:38.510Z,3.40
2024-04-13T17:37:10.847Z,4.00
2024-04-13T17:39:52.402Z,3.60
2024-04-13T17:42:25.539Z,4.00
2024-04-13T17:44:57.917Z,5.30
2024-04-13T17:47:29.786Z,4.50
2024-04-13T17:50:06.565Z,4.60
2024-04-13T17:52:39.062Z,3.70
2024-04-13T17:55:11.349Z,4.80
2024-04-13T17:57:48.524Z,5.80
2024-04-13T18:02:56.726Z,4.50
2024-04-13T18:08:00.205Z,4.20
2024-04-13T18:10:34.463Z,4.60
2024-04-13T18:13:07.194Z,4.00
2024-04-13T18:15:39.329Z,4.50
2024-04-13T18:18:12.463Z,4.00
2024-04-13T18:20:44.808Z,4.50
2024-04-13T18:23:23.202Z,6.20
2024-04-13T18:25:56.087Z,6.90
2024-04-13T18:28:31.005Z,5.70
2024-04-13T18:31:05.130Z,6.10
2024-04-13T18:33:42.478Z,5.90
2024-04-13T18:36:15.993Z,5.60
2024-04-13T18:38:52.967Z,6.00
2024-04-13T18:41:27.222Z,6.40
2024-04-13T18:43:59.610Z,5.30
2024-04-13T18:46:34.971Z,6.40
2024-04-13T18:49:07.889Z,6.30
2024-04-13T18:51:42.016Z,5.60
2024-04-13T18:54:14.756Z,6.80
2024-04-13T18:56:47.821Z,7.00
2024-04-13T18:59:20.764Z,5.90
2024-04-13T19:01:55.162Z,7.00
2024-04-13T19:04:27.900Z,6.60
2024-04-13T19:07:00.125Z,7.20
2024-04-13T19:09:35.114Z,8.00
2024-04-13T19:12:08.927Z,6.40
2024-04-13T19:14:40.833Z,7.10
2024-04-13T19:17:16.031Z,8.30
2024-04-13T19:22:20.263Z,6.40
2024-04-13T19:24:58.102Z,5.80
2024-04-13T19:27:33.085Z,6.20
2024-04-13T19:30:08.189Z,6.80
2024-04-13T19:32:40.075Z,5.60
2024-04-13T19:35:13.803Z,6.30
2024-04-13T19:37:46.600Z,6.00
2024-04-13T19:40:19.833Z,6.50
2024-04-13T19:42:53.003Z,5.60
2024-04-13T19:45:28.321Z,6.50
2024-04-13T19:48:00.348Z,6.30
2024-04-13T19:50:35.983Z,6.40
2024-04-13T19:53:08.202Z,5.80
2024-04-13T19:55:40.760Z,6.80
2024-04-13T19:58:14.464Z,6.00
2024-04-13T20:00:49.410Z,5.90
2024-04-13T20:03:25.726Z,5.20
2024-04-13T20:06:03.327Z,5.70
2024-04-13T20:08:37.865Z,6.00
2024-04-13T20:13:48.363Z,5.50
2024-04-13T20:16:40.765Z,6.60
2024-04-13T20:21:48.290Z,9.80
2024-04-13T20:24:23.097Z,7.20
2024-04-13T20:26:58.535Z,9.00
2024-04-13T20:29:30.393Z,7.70
2024-04-13T20:32:06.264Z,6.30
2024-04-13T20:34:38.641Z,7.00
2024-04-13T20:37:11.046Z,7.50
2024-04-13T20:39:48.311Z,6.90
2024-04-13T20:42:20.134Z,8.70
2024-04-13T20:44:55.511Z,5.70
2024-04-13T20:47:28.225Z,6.60
2024-04-13T20:50:00.311Z,5.60
2024-04-13T20:52:52.540Z,6.10
2024-04-13T20:55:32.352Z,6.20
2024-04-13T20:58:06.608Z,8.00
2024-04-13T21:00:40.648Z,5.60
2024-04-13T21:03:14.633Z,6.50
2024-04-13T21:05:49.635Z,8.20
2024-04-13T21:08:22.470Z,6.90
2024-04-13T21:10:56.181Z,7.50
2024-04-13T21:13:28.385Z,7.80
2024-04-13T21:16:00.871Z,6.60
2024-04-13T21:18:35.408Z,7.70
2024-04-13T21:21:08.887Z,6.90
2024-04-13T21:23:40.865Z,8.60
2024-04-13T21:26:16.828Z,7.60
2024-04-13T21:28:48.917Z,9.90
2024-04-13T21:31:20.811Z,7.70
2024-04-13T21:33:55.851Z,7.00
2024-04-13T21:36:32.788Z,7.00
2024-04-13T21:39:08.205Z,8.00
2024-04-13T21:41:40.759Z,8.40
2024-04-13T21:44:16.429Z,7.50
2024-04-13T21:46:51.098Z,7.80
2024-04-13T21:49:28.690Z,8.70
2024-04-13T21:52:05.424Z,7.50
2024-04-13T21:54:44.621Z,7.10
2024-04-13T21:57:18.194Z,5.20
2024-04-13T21:59:50.348Z,6.10
2024-04-13T22:02:25.117Z,7.20
2024-04-13T22:05:00.025Z,6.50
2024-04-13T22:07:34.717Z,7.60
2024-04-13T22:10:08.371Z,6.00
2024-04-13T22:12:44.437Z,6.40
2024-04-13T22:15:17.451Z,5.80
2024-04-13T22:17:49.702Z,5.80
2024-04-13T22:20:23.520Z,6.30
2024-04-13T22:22:56.523Z,8.10
2024-04-13T22:25:30.584Z,8.30
2024-04-13T22:28:04.740Z,7.40
2024-04-13T22:30:39.925Z,6.70
2024-04-13T22:33:13.675Z,5.80
2024-04-13T22:35:53.300Z,7.00
2024-04-13T22:38:27.258Z,6.50
2024-04-13T22:40:59.181Z,7.10
2024-04-13T22:43:34.625Z,6.50
2024-04-13T22:46:07.203Z,6.80
2024-04-13T22:48:40.111Z,6.50
2024-04-13T22:51:13.774Z,7.70
2024-04-13T22:53:48.031Z,5.90
2024-04-13T22:56:19.817Z,6.70
2024-04-13T22:58:53.899Z,7.30
2024-04-13T23:01:26.876Z,6.70
2024-04-13T23:03:58.775Z,5.90
2024-04-13T23:06:30.922Z,7.80
2024-04-13T23:09:06.650Z,7.80
2024-04-13T23:11:40.007Z,7.30
2024-04-13T23:14:15.402Z,7.40
2024-04-13T23:16:50.158Z,6.30
2024-04-13T23:19:23.915Z,6.30
2024-04-13T23:21:57.963Z,6.10
2024-04-13T23:24:30.023Z,10.30
2024-04-13T23:27:05.146Z,6.80
2024-04-13T23:29:37.759Z,6.00
2024-04-13T23:32:10.392Z,7.90
2024-04-13T23:34:47.198Z,6.50
2024-04-13T23:37:18.962Z,6.60
2024-04-13T23:39:53.473Z,7.80
2024-04-13T23:42:26.711Z,6.70
2024-04-13T23:44:59.016Z,8.70
2024-04-13T23:47:32.209Z,8.20
2024-04-13T23:50:05.590Z,9.40
2024-04-13T23:52:37.920Z,7.80
2024-04-13T23:55:10.775Z,6.20
2024-04-13T23:57:45.759Z,6.90
